createdAt,value
2022-10-26T00:03:42.837Z,25.67
2022-10-26T00:08:45.564Z,20.52
2022-10-26T00:13:48.375Z,27.60
2022-10-26T00:18:50.638Z,18.90
2022-10-26T00:23:52.665Z,24.20
2022-10-26T00:28:55.824Z,17.98
2022-10-26T00:33:57.867Z,19.40
2022-10-26T00:38:59.912Z,18.20
2022-10-26T00:44:21.965Z,25.27
2022-10-26T00:49:24.328Z,20.52
2022-10-26T00:54:26.501Z,24.92
2022-10-26T00:59:28.504Z,20.63
2022-10-26T01:04:30.482Z,21.38
2022-10-26T01:09:33.125Z,20.60
2022-10-26T01:14:35.481Z,16.40
2022-10-26T01:19:57.614Z,19.27
2022-10-26T01:25:29.281Z,21.23
2022-10-26T01:30:34.059Z,19.05
2022-10-26T01:35:44.786Z,26.30
2022-10-26T01:40:53.093Z,20.23
2022-10-26T01:45:56.713Z,22.90
2022-10-26T01:50:59.729Z,22.45
2022-10-26T01:56:02.507Z,21.92
2022-10-26T02:01:34.453Z,17.30
2022-10-26T02:06:39.493Z,22.20
2022-10-26T02:11:52.118Z,19.48
2022-10-26T02:17:04.650Z,21.83
2022-10-26T02:22:31.705Z,24.63
2022-10-26T02:27:39.054Z,18.95
2022-10-26T02:32:45.384Z,27.25
2022-10-26T02:37:49.283Z,22.23
2022-10-26T02:42:53.160Z,23.30
2022-10-26T02:48:03.351Z,19.70
2022-10-26T02:53:25.448Z,19.60
2022-10-26T02:58:31.101Z,19.20
2022-10-26T03:03:33.180Z,20.55
2022-10-26T03:08:35.231Z,26.45
2022-10-26T03:13:37.213Z,27.30
2022-10-26T03:18:39.285Z,29.67
2022-10-26T03:23:42.204Z,33.75
2022-10-26T03:28:44.113Z,30.10
2022-10-26T03:33:46.270Z,35.13
2022-10-26T03:38:48.164Z,35.38
2022-10-26T03:43:50.168Z,35.83
2022-10-26T03:48:58.252Z,28.27
2022-10-26T03:54:01.737Z,39.47
2022-10-26T03:59:04.167Z,29.92
2022-10-26T04:04:06.447Z,31.95
2022-10-26T04:09:08.564Z,30.25
2022-10-26T04:14:10.525Z,27.35
2022-10-26T04:19:12.434Z,30.65
2022-10-26T04:24:14.711Z,29.27
2022-10-26T04:29:16.746Z,27.52
2022-10-26T04:34:18.952Z,26.23
2022-10-26T04:39:20.884Z,26.23
2022-10-26T04:44:23.065Z,33.92
2022-10-26T04:49:25.254Z,28.98
2022-10-26T04:54:27.176Z,34.10
2022-10-26T04:59:29.091Z,34.75
2022-10-26T05:04:31.269Z,51.28
2022-10-26T05:09:33.338Z,47.47
2022-10-26T05:14:35.339Z,40.30
2022-10-26T05:19:37.489Z,29.50
2022-10-26T05:24:39.524Z,35.20
2022-10-26T05:29:41.643Z,28.50
2022-10-26T05:34:44.130Z,33.35
2022-10-26T05:39:46.328Z,31.90
2022-10-26T05:44:48.573Z,40.13
2022-10-26T05:49:50.556Z,35.08
2022-10-26T05:54:52.790Z,27.25
2022-10-26T05:59:55.025Z,33.50
2022-10-26T06:05:05.171Z,40.35
2022-10-26T06:10:07.939Z,39.28
2022-10-26T06:15:16.381Z,35.80
2022-10-26T06:20:50.851Z,31.13
2022-10-26T06:26:26.856Z,34.75
2022-10-26T06:31:28.956Z,42.70
2022-10-26T06:36:32.097Z,32.40
2022-10-26T06:41:35.802Z,31.40
2022-10-26T06:46:46.283Z,29.67
2022-10-26T06:51:57.515Z,30.98
2022-10-26T06:56:59.893Z,31.92
2022-10-26T07:02:05.578Z,29.55
2022-10-26T07:07:11.949Z,28.58
2022-10-26T07:12:13.979Z,36.35
2022-10-26T07:17:17.007Z,35.30
2022-10-26T07:22:18.925Z,31.52
2022-10-26T07:27:21.005Z,36.58
2022-10-26T07:32:23.216Z,40.10
2022-10-26T07:37:25.311Z,29.85
2022-10-26T07:42:31.932Z,24.55
2022-10-26T07:47:34.040Z,22.67
2022-10-26T07:52:36.990Z,23.48
2022-10-26T07:57:39.405Z,23.13
2022-10-26T08:02:41.677Z,17.47
2022-10-26T08:07:44.876Z,21.98
2022-10-26T08:12:46.907Z,20.05
2022-10-26T08:17:49.255Z,18.10
2022-10-26T08:22:52.848Z,17.42
2022-10-26T08:33:05.528Z,19.83
2022-10-26T08:38:07.652Z,21.25
2022-10-26T08:43:25.377Z,18.98
2022-10-26T08:48:40.661Z,20.55
2022-10-26T08:54:00.565Z,19.05
2022-10-26T08:59:28.519Z,18.00
2022-10-26T09:04:32.269Z,18.73
2022-10-26T09:09:58.930Z,16.20
2022-10-26T09:15:25.637Z,18.30
2022-10-26T09:20:49.912Z,17.77
2022-10-26T09:26:00.816Z,18.25
2022-10-26T09:31:04.548Z,20.55
2022-10-26T09:36:16.924Z,13.77
2022-10-26T09:41:37.252Z,13.97
2022-10-26T09:47:12.985Z,16.65
2022-10-26T09:52:16.166Z,21.92
2022-10-26T09:57:20.730Z,17.55
2022-10-26T10:02:47.172Z,20.45
2022-10-26T10:07:49.601Z,19.45
2022-10-26T10:12:52.968Z,16.77
2022-10-26T10:17:58.626Z,15.15
2022-10-26T10:23:03.721Z,13.38
2022-10-26T10:28:22.918Z,16.33
2022-10-26T10:33:41.457Z,16.17
2022-10-26T10:38:45.675Z,11.85
2022-10-26T10:43:51.804Z,10.48
2022-10-26T10:49:02.630Z,13.13
2022-10-26T10:54:05.958Z,11.48
2022-10-26T10:59:18.313Z,11.70
2022-10-26T11:04:45.861Z,11.32
2022-10-26T11:09:49.626Z,14.35
2022-10-26T11:15:12.656Z,14.13
2022-10-26T11:20:24.928Z,14.13
2022-10-26T11:25:35.718Z,15.57
2022-10-26T11:30:44.055Z,16.17
2022-10-26T11:35:50.058Z,13.02
2022-10-26T11:41:25.083Z,11.07
2022-10-26T11:46:42.605Z,13.75
2022-10-26T11:52:04.853Z,12.95
2022-10-26T11:57:07.772Z,24.45
2022-10-26T12:02:17.997Z,13.13
2022-10-26T12:07:29.084Z,13.35
2022-10-26T12:13:06.688Z,13.48
2022-10-26T12:18:54.064Z,14.85
2022-10-26T12:23:56.737Z,9.10
2022-10-26T12:29:01.711Z,14.43
2022-10-26T12:34:25.344Z,9.32
2022-10-26T12:39:37.011Z,13.65
2022-10-26T12:45:00.160Z,12.95
2022-10-26T12:50:08.382Z,13.57
2022-10-26T12:55:18.141Z,9.55
2022-10-26T13:00:27.856Z,11.38
2022-10-26T13:05:39.066Z,11.98
2022-10-26T13:11:01.125Z,15.07
2022-10-26T13:16:03.945Z,13.63
2022-10-26T13:21:12.067Z,14.90
2022-10-26T13:26:18.255Z,16.75
2022-10-26T13:31:31.227Z,14.45
2022-10-26T13:36:36.752Z,14.32
2022-10-26T13:41:42.520Z,14.63
2022-10-26T13:46:46.735Z,13.38
2022-10-26T13:51:52.262Z,12.60
2022-10-26T13:57:28.070Z,16.10
2022-10-26T14:02:32.964Z,15.60
2022-10-26T14:12:51.294Z,18.02
2022-10-26T14:17:55.523Z,16.13
2022-10-26T14:22:57.880Z,14.68
2022-10-26T14:28:00.056Z,17.20
2022-10-26T14:33:19.821Z,19.33
2022-10-26T14:38:27.762Z,23.90
2022-10-26T14:43:31.063Z,24.85
2022-10-26T14:48:34.872Z,17.27
2022-10-26T14:53:41.391Z,15.43
2022-10-26T14:58:44.408Z,35.47
2022-10-26T15:03:48.368Z,34.60
2022-10-26T15:08:57.191Z,52.03
2022-10-26T15:14:00.422Z,37.58
2022-10-26T15:19:10.884Z,41.05
2022-10-26T15:24:38.982Z,37.03
2022-10-26T15:29:46.734Z,53.90
2022-10-26T15:35:19.555Z,67.28
2022-10-26T15:40:22.236Z,50.05
2022-10-26T15:45:34.207Z,89.37
2022-10-26T15:50:37.819Z,83.03
2022-10-26T15:55:42.937Z,122.00
2022-10-26T16:00:45.481Z,98.45
2022-10-26T16:05:51.582Z,75.75
2022-10-26T16:10:53.856Z,63.83
2022-10-26T16:15:55.958Z,83.22
2022-10-26T16:20:58.007Z,98.88
2022-10-26T16:26:00.164Z,88.30
2022-10-26T16:31:08.661Z,88.50
2022-10-26T16:36:12.810Z,84.72
2022-10-26T16:41:17.090Z,67.13
2022-10-26T16:46:21.358Z,74.03
2022-10-26T16:51:28.523Z,89.13
2022-10-26T16:56:30.628Z,94.70
2022-10-26T17:01:33.074Z,100.18
2022-10-26T17:06:35.255Z,105.45
2022-10-26T17:11:37.536Z,102.82
2022-10-26T17:16:39.524Z,106.68
2022-10-26T17:21:43.579Z,95.28
2022-10-26T17:26:45.690Z,94.13
2022-10-26T17:31:47.697Z,130.45
2022-10-26T17:36:49.777Z,108.60
2022-10-26T17:41:52.020Z,128.35
2022-10-26T17:46:53.957Z,138.98
2022-10-26T17:51:55.967Z,187.55
2022-10-26T17:56:58.741Z,187.75
2022-10-26T18:02:01.034Z,161.13
2022-10-26T18:07:04.234Z,275.55
2022-10-26T18:12:06.581Z,171.00
2022-10-26T18:17:08.753Z,208.75
2022-10-26T18:22:11.020Z,197.77
2022-10-26T18:27:13.511Z,199.60
2022-10-26T18:32:15.521Z,215.50
2022-10-26T18:37:17.796Z,209.90
2022-10-26T18:42:19.797Z,175.82
2022-10-26T18:47:21.773Z,187.65
2022-10-26T18:52:23.958Z,188.77
2022-10-26T18:57:28.480Z,198.10
2022-10-26T19:02:30.649Z,186.82
2022-10-26T19:07:33.182Z,191.25
2022-10-26T19:12:35.297Z,200.38
2022-10-26T19:17:37.322Z,212.63
2022-10-26T19:22:40.873Z,199.25
2022-10-26T19:27:51.709Z,212.07
2022-10-26T19:33:01.073Z,228.90
2022-10-26T19:38:05.556Z,226.65
2022-10-26T19:43:07.536Z,209.00
2022-10-26T19:48:09.485Z,208.00
2022-10-26T19:53:11.749Z,211.18
2022-10-26T19:58:14.161Z,215.30
2022-10-26T20:03:16.678Z,209.65
2022-10-26T20:08:19.758Z,214.20
2022-10-26T20:13:22.401Z,198.73
2022-10-26T20:18:24.526Z,208.27
2022-10-26T20:23:26.715Z,222.13
2022-10-26T20:28:29.768Z,245.50
2022-10-26T20:33:38.117Z,232.27
2022-10-26T20:38:40.629Z,222.82
2022-10-26T20:43:42.985Z,151.90
2022-10-26T20:48:45.338Z,116.57
2022-10-26T20:53:53.577Z,109.82
2022-10-26T20:58:58.421Z,166.07
2022-10-26T21:04:02.199Z,189.23
2022-10-26T21:09:04.256Z,206.80
2022-10-26T21:14:06.485Z,226.85
2022-10-26T21:19:08.509Z,229.40
2022-10-26T21:24:10.762Z,218.45
2022-10-26T21:29:12.927Z,239.63
2022-10-26T21:34:14.876Z,221.70
2022-10-26T21:39:16.886Z,232.23
2022-10-26T21:44:40.315Z,250.65
2022-10-26T21:54:50.093Z,200.73
2022-10-26T21:59:58.566Z,176.90
2022-10-26T22:05:00.564Z,169.20
2022-10-26T22:10:16.978Z,199.40
2022-10-26T22:15:18.937Z,129.20
2022-10-26T22:20:20.892Z,144.48
2022-10-26T22:25:22.879Z,117.93
2022-10-26T22:30:25.120Z,160.60
2022-10-26T22:35:30.293Z,143.77
2022-10-26T22:40:32.304Z,282.60
2022-10-26T22:45:34.278Z,289.30
2022-10-26T22:50:38.394Z,390.42
2022-10-26T22:55:42.068Z,244.57
2022-10-26T23:00:46.044Z,223.02
2022-10-26T23:10:50.405Z,205.50
2022-10-26T23:15:52.641Z,132.88
2022-10-26T23:20:54.857Z,259.05
2022-10-26T23:26:04.593Z,247.32
2022-10-26T23:31:06.995Z,508.55
2022-10-26T23:36:09.025Z,566.88
2022-10-26T23:41:12.969Z,573.47
2022-10-26T23:46:15.494Z,428.98
2022-10-26T23:51:17.605Z,374.10
2022-10-26T23:56:19.634Z,254.05
